createdAt,value
2022-11-19T00:02:01.892Z,61.33
2022-11-19T00:04:29.786Z,62.13
2022-11-19T00:06:57.657Z,62.29
2022-11-19T00:09:27.282Z,62.08
2022-11-19T00:12:12.487Z,62.28
2022-11-19T00:14:40.418Z,62.08
2022-11-19T00:17:08.342Z,61.92
2022-11-19T00:19:36.219Z,61.50
2022-11-19T00:22:04.069Z,61.68
2022-11-19T00:24:33.306Z,62.46
2022-11-19T00:27:01.176Z,63.47
2022-11-19T00:29:29.029Z,62.53
2022-11-19T00:31:56.848Z,62.91
2022-11-19T00:34:24.683Z,63.28
2022-11-19T00:36:52.541Z,63.20
2022-11-19T00:39:21.618Z,62.32
2022-11-19T00:41:51.412Z,61.75
2022-11-19T00:44:19.275Z,61.72
2022-11-19T00:46:47.236Z,62.86
2022-11-19T00:49:15.071Z,62.70
2022-11-19T00:51:43.071Z,62.16
2022-11-19T00:54:10.919Z,61.77
2022-11-19T00:56:38.790Z,61.36
2022-11-19T00:59:07.984Z,61.64
2022-11-19T01:01:35.872Z,61.62
2022-11-19T01:04:03.706Z,60.95
2022-11-19T01:06:31.567Z,60.81
2022-11-19T01:08:59.843Z,61.26
2022-11-19T01:11:29.551Z,60.69
2022-11-19T01:13:58.870Z,60.55
2022-11-19T01:16:30.271Z,60.45
2022-11-19T01:18:58.427Z,60.73
2022-11-19T01:21:28.784Z,60.57
2022-11-19T01:23:56.837Z,60.30
2022-11-19T01:26:25.486Z,60.16
2022-11-19T01:28:53.720Z,60.53
2022-11-19T01:31:23.237Z,61.20
2022-11-19T01:33:52.946Z,62.03
2022-11-19T01:36:22.894Z,61.43
2022-11-19T01:38:51.860Z,61.26
2022-11-19T01:41:20.056Z,61.10
2022-11-19T01:43:49.927Z,61.27
2022-11-19T01:46:19.253Z,61.16
2022-11-19T01:48:50.230Z,61.75
2022-11-19T01:51:21.731Z,61.79
2022-11-19T01:53:51.271Z,62.53
2022-11-19T01:56:21.833Z,62.42
2022-11-19T01:58:52.062Z,62.20
2022-11-19T02:01:20.647Z,62.76
2022-11-19T02:03:49.399Z,62.55
2022-11-19T02:06:18.879Z,63.13
2022-11-19T02:08:49.990Z,62.95
2022-11-19T02:11:52.663Z,62.50
2022-11-19T02:14:34.062Z,62.58
2022-11-19T02:17:07.522Z,62.11
2022-11-19T02:20:02.987Z,63.09
2022-11-19T02:22:48.848Z,63.91
2022-11-19T02:25:27.179Z,63.21
2022-11-19T02:28:12.087Z,62.84
2022-11-19T02:30:43.544Z,63.25
2022-11-19T02:33:15.832Z,62.87
2022-11-19T02:35:48.387Z,63.16
2022-11-19T02:38:23.399Z,62.92
2022-11-19T02:40:56.436Z,63.23
2022-11-19T02:43:27.600Z,63.47
2022-11-19T02:45:58.564Z,62.81
2022-11-19T02:48:29.511Z,63.00
2022-11-19T02:51:00.055Z,62.86
2022-11-19T02:53:27.911Z,63.26
2022-11-19T02:56:13.961Z,63.65
2022-11-19T02:59:01.816Z,62.88
2022-11-19T03:01:49.607Z,63.27
2022-11-19T03:04:31.952Z,63.35
2022-11-19T03:07:03.492Z,63.38
2022-11-19T03:09:32.578Z,63.16
2022-11-19T03:12:06.673Z,63.69
2022-11-19T03:14:56.138Z,62.98
2022-11-19T03:17:29.071Z,61.92
2022-11-19T03:19:59.439Z,61.49
2022-11-19T03:22:31.284Z,62.80
2022-11-19T03:25:02.095Z,62.65
2022-11-19T03:27:32.871Z,62.56
2022-11-19T03:30:03.372Z,61.44
2022-11-19T03:32:37.083Z,60.67
2022-11-19T03:35:09.175Z,60.76
2022-11-19T03:37:39.363Z,61.06
2022-11-19T03:40:10.610Z,61.81
2022-11-19T03:42:38.800Z,62.58
2022-11-19T03:45:11.570Z,62.10
2022-11-19T03:47:42.004Z,61.81
2022-11-19T03:50:15.913Z,61.95
2022-11-19T03:52:44.288Z,61.90
2022-11-19T03:55:12.482Z,61.63
2022-11-19T03:57:40.418Z,61.56
2022-11-19T04:00:09.641Z,61.46
2022-11-19T04:02:44.675Z,61.10
2022-11-19T04:05:12.579Z,61.02
2022-11-19T04:07:40.475Z,60.66
2022-11-19T04:10:09.094Z,60.87
2022-11-19T04:12:36.855Z,60.20
2022-11-19T04:15:05.292Z,60.56
2022-11-19T04:17:33.108Z,60.60
2022-11-19T04:20:02.355Z,60.48
2022-11-19T04:22:30.160Z,60.10
2022-11-19T04:24:58.034Z,60.13
2022-11-19T04:27:25.897Z,59.52
2022-11-19T04:29:53.739Z,59.63
2022-11-19T04:32:21.599Z,60.25
2022-11-19T04:34:49.578Z,59.72
2022-11-19T04:37:18.788Z,60.84
2022-11-19T04:39:46.653Z,61.51
2022-11-19T04:42:14.540Z,61.57
2022-11-19T04:44:42.467Z,60.54
2022-11-19T04:47:10.289Z,60.90
2022-11-19T04:49:38.124Z,60.39
2022-11-19T04:52:06.464Z,60.38
2022-11-19T04:54:35.724Z,59.94
2022-11-19T04:57:03.609Z,61.70
2022-11-19T04:59:31.443Z,61.95
2022-11-19T05:01:59.370Z,61.99
2022-11-19T05:04:27.475Z,62.33
2022-11-19T05:06:55.450Z,62.39
2022-11-19T05:09:23.381Z,62.47
2022-11-19T05:11:52.674Z,62.44
2022-11-19T05:14:20.479Z,62.35
2022-11-19T05:16:48.349Z,62.02
2022-11-19T05:19:16.323Z,61.82
2022-11-19T05:21:44.174Z,61.52
2022-11-19T05:24:12.192Z,62.18
2022-11-19T05:26:40.017Z,62.40
2022-11-19T05:29:09.277Z,62.88
2022-11-19T05:31:37.500Z,62.01
2022-11-19T05:34:05.383Z,61.60
2022-11-19T05:36:33.399Z,61.42
2022-11-19T05:39:01.208Z,62.45
2022-11-19T05:41:29.056Z,62.13
2022-11-19T05:43:57.657Z,61.53
2022-11-19T05:46:26.935Z,61.58
2022-11-19T05:48:55.327Z,62.33
2022-11-19T05:51:23.237Z,61.76
2022-11-19T05:53:51.108Z,62.00
2022-11-19T05:56:19.484Z,61.42
2022-11-19T05:58:47.333Z,61.24
2022-11-19T06:01:15.353Z,61.67
2022-11-19T06:03:44.516Z,62.51
2022-11-19T06:06:12.383Z,61.92
2022-11-19T06:08:40.230Z,61.63
2022-11-19T06:11:28.072Z,61.19
2022-11-19T06:13:55.953Z,61.01
2022-11-19T06:16:24.161Z,61.35
2022-11-19T06:18:53.489Z,60.97
2022-11-19T06:21:21.449Z,60.47
2022-11-19T06:23:49.350Z,59.90
2022-11-19T06:26:23.589Z,60.13
2022-11-19T06:28:51.516Z,59.69
2022-11-19T06:31:19.436Z,59.62
2022-11-19T06:33:47.344Z,59.66
2022-11-19T06:36:16.698Z,60.05
2022-11-19T06:38:44.530Z,59.72
2022-11-19T06:41:12.479Z,59.43
2022-11-19T06:43:40.257Z,59.15
2022-11-19T06:46:08.254Z,60.29
2022-11-19T06:48:36.241Z,60.44
2022-11-19T06:51:04.568Z,59.86
2022-11-19T06:53:34.086Z,59.52
2022-11-19T06:56:03.390Z,60.24
2022-11-19T06:58:31.883Z,60.07
2022-11-19T07:00:59.922Z,59.81
2022-11-19T07:03:27.716Z,59.13
2022-11-19T07:05:58.574Z,58.81
2022-11-19T07:08:26.523Z,58.61
2022-11-19T07:10:56.513Z,58.86
2022-11-19T07:13:24.393Z,59.20
2022-11-19T07:15:52.267Z,58.79
2022-11-19T07:18:20.067Z,58.08
2022-11-19T07:20:47.905Z,58.69
2022-11-19T07:23:15.825Z,58.18
2022-11-19T07:25:43.653Z,58.29
2022-11-19T07:28:12.923Z,58.64
2022-11-19T07:30:40.829Z,58.55
2022-11-19T07:33:08.765Z,57.78
2022-11-19T07:35:36.633Z,58.11
2022-11-19T07:38:04.484Z,57.97
2022-11-19T07:40:33.429Z,57.42
2022-11-19T07:43:00.264Z,58.06
2022-11-19T07:45:29.628Z,57.56
2022-11-19T07:47:57.484Z,56.90
2022-11-19T07:50:25.331Z,56.42
2022-11-19T07:52:53.152Z,56.29
2022-11-19T07:55:20.990Z,56.29
2022-11-19T07:57:48.883Z,56.26
2022-11-19T08:00:17.023Z,55.86
2022-11-19T08:02:46.347Z,55.66
2022-11-19T08:05:14.223Z,56.17
2022-11-19T08:07:42.571Z,55.79
2022-11-19T08:10:11.614Z,55.98
2022-11-19T08:12:39.471Z,56.42
2022-11-19T08:15:08.546Z,55.81
2022-11-19T08:17:53.758Z,55.62
2022-11-19T08:20:22.936Z,56.31
2022-11-19T08:22:50.787Z,55.78
2022-11-19T08:25:18.616Z,56.23
2022-11-19T08:27:46.488Z,55.54
2022-11-19T08:30:15.545Z,55.06
2022-11-19T08:32:43.430Z,56.17
2022-11-19T08:35:11.262Z,54.74
2022-11-19T08:37:40.444Z,54.88
2022-11-19T08:40:09.621Z,54.07
2022-11-19T08:42:54.774Z,54.20
2022-11-19T08:45:22.588Z,53.97
2022-11-19T08:47:50.448Z,53.64
2022-11-19T08:50:18.650Z,52.94
2022-11-19T08:52:47.892Z,52.73
2022-11-19T08:55:15.772Z,53.03
2022-11-19T08:57:43.622Z,52.71
2022-11-19T09:00:12.828Z,53.05
2022-11-19T09:02:40.694Z,53.11
2022-11-19T09:05:14.306Z,52.42
2022-11-19T09:07:42.627Z,52.50
2022-11-19T09:10:11.976Z,51.25
2022-11-19T09:12:39.900Z,52.39
2022-11-19T09:15:08.767Z,52.16
2022-11-19T09:17:36.838Z,51.64
2022-11-19T09:20:05.515Z,51.58
2022-11-19T09:22:33.446Z,51.68
2022-11-19T09:25:01.306Z,52.07
2022-11-19T09:27:30.652Z,51.83
2022-11-19T09:29:58.575Z,51.42
2022-11-19T09:32:26.464Z,50.99
2022-11-19T09:34:54.365Z,51.36
2022-11-19T09:37:22.250Z,51.56
2022-11-19T09:39:50.156Z,51.49
2022-11-19T09:42:22.807Z,51.03
2022-11-19T09:45:20.411Z,51.33
2022-11-19T09:48:05.856Z,51.23
2022-11-19T09:50:37.812Z,51.33
2022-11-19T09:53:09.207Z,50.79
2022-11-19T09:55:38.707Z,51.47
2022-11-19T09:58:11.328Z,51.59
2022-11-19T10:00:39.216Z,51.61
2022-11-19T10:03:15.093Z,51.22
2022-11-19T10:05:54.194Z,51.49
2022-11-19T10:08:32.774Z,51.03
2022-11-19T10:11:11.152Z,51.41
2022-11-19T10:13:47.904Z,51.06
2022-11-19T10:16:23.677Z,50.54
2022-11-19T10:18:59.721Z,50.92
2022-11-19T10:21:30.789Z,49.79
2022-11-19T10:24:05.647Z,49.26
2022-11-19T10:26:35.874Z,49.31
2022-11-19T10:29:05.518Z,48.99
2022-11-19T10:31:36.193Z,46.86
2022-11-19T10:34:10.375Z,43.58
2022-11-19T10:36:41.235Z,43.08
2022-11-19T10:39:15.643Z,42.99
2022-11-19T10:41:46.631Z,41.09
2022-11-19T10:44:41.337Z,38.83
2022-11-19T10:47:17.728Z,38.73
2022-11-19T10:49:47.307Z,38.39
2022-11-19T10:52:27.420Z,37.21
2022-11-19T10:54:58.291Z,37.49
2022-11-19T10:57:27.140Z,38.03
2022-11-19T10:59:55.640Z,39.01
2022-11-19T11:02:28.408Z,39.49
2022-11-19T11:05:05.237Z,39.26
2022-11-19T11:07:53.385Z,39.11
2022-11-19T11:10:30.131Z,38.97
2022-11-19T11:13:17.531Z,40.32
2022-11-19T11:15:46.360Z,40.89
2022-11-19T11:18:15.673Z,41.49
2022-11-19T11:20:49.030Z,43.78
2022-11-19T11:23:19.129Z,44.05
2022-11-19T11:25:55.445Z,43.71
2022-11-19T11:28:25.324Z,43.46
2022-11-19T11:30:54.827Z,43.57
2022-11-19T11:33:35.061Z,43.47
2022-11-19T11:36:07.104Z,43.32
2022-11-19T11:38:41.438Z,44.07
2022-11-19T11:42:01.880Z,43.96
2022-11-19T11:44:02.643Z,43.81
2022-11-19T11:46:39.295Z,43.92
2022-11-19T11:49:12.551Z,43.97
2022-11-19T11:51:42.081Z,43.18
2022-11-19T11:54:18.512Z,42.28
2022-11-19T11:56:46.999Z,42.38
2022-11-19T11:59:25.388Z,42.09
2022-11-19T12:01:57.564Z,41.67
2022-11-19T12:04:25.966Z,40.71
2022-11-19T12:07:05.419Z,40.23
2022-11-19T12:09:40.179Z,38.32
2022-11-19T12:12:12.039Z,34.66
2022-11-19T12:14:44.220Z,33.92
2022-11-19T12:17:20.160Z,34.44
2022-11-19T12:20:04.708Z,36.71
2022-11-19T12:22:43.720Z,31.23
2022-11-19T12:25:31.556Z,31.73
2022-11-19T12:28:12.053Z,34.63
2022-11-19T12:30:46.604Z,33.06
2022-11-19T12:33:29.836Z,33.94
2022-11-19T12:36:07.866Z,33.20
2022-11-19T12:38:45.358Z,34.45
2022-11-19T12:41:45.762Z,35.90
2022-11-19T12:44:21.633Z,36.59
2022-11-19T12:46:53.727Z,36.68
2022-11-19T12:49:33.943Z,36.97
2022-11-19T12:52:07.989Z,37.92
2022-11-19T12:54:48.774Z,38.25
2022-11-19T12:57:31.930Z,38.92
2022-11-19T13:00:15.738Z,38.74
2022-11-19T13:02:56.745Z,38.71
2022-11-19T13:05:29.776Z,38.32
2022-11-19T13:08:02.631Z,36.04
2022-11-19T13:10:35.135Z,35.00
2022-11-19T13:13:04.059Z,34.90
2022-11-19T13:15:35.913Z,35.12
2022-11-19T13:18:06.212Z,33.82
2022-11-19T13:20:40.027Z,35.04
2022-11-19T13:23:08.427Z,35.39
2022-11-19T13:25:40.169Z,32.78
2022-11-19T13:28:14.603Z,31.19
2022-11-19T13:30:43.909Z,33.46
2022-11-19T13:33:16.353Z,35.96
2022-11-19T13:35:48.501Z,37.14
2022-11-19T13:38:20.968Z,37.65
2022-11-19T13:40:53.374Z,38.22
2022-11-19T13:43:40.083Z,38.69
2022-11-19T13:46:20.436Z,38.74
2022-11-19T13:48:54.611Z,38.85
2022-11-19T13:51:27.440Z,38.84
2022-11-19T13:54:02.341Z,36.70
2022-11-19T13:56:44.291Z,34.80
2022-11-19T13:59:33.000Z,32.66
2022-11-19T14:02:28.485Z,33.50
2022-11-19T14:05:11.302Z,36.15
2022-11-19T14:07:50.758Z,36.66
2022-11-19T14:10:23.449Z,37.26
2022-11-19T14:13:26.691Z,34.05
2022-11-19T14:16:19.962Z,27.54
2022-11-19T14:19:08.064Z,30.56
2022-11-19T14:22:04.269Z,35.32
2022-11-19T14:25:14.794Z,37.48
2022-11-19T14:27:43.000Z,35.91
2022-11-19T14:30:14.715Z,34.77
2022-11-19T14:32:47.184Z,32.35
2022-11-19T14:35:34.274Z,31.15
2022-11-19T14:38:34.272Z,28.08
2022-11-19T14:41:22.604Z,31.72
2022-11-19T14:44:09.847Z,35.63
2022-11-19T14:46:41.374Z,37.93
2022-11-19T14:49:24.029Z,38.59
2022-11-19T14:51:54.467Z,38.95
2022-11-19T14:54:32.771Z,38.61
2022-11-19T14:57:18.472Z,37.56
2022-11-19T14:59:49.571Z,37.43
2022-11-19T15:02:24.555Z,38.45
2022-11-19T15:04:56.732Z,38.33
2022-11-19T15:07:41.972Z,38.74
2022-11-19T15:10:29.648Z,40.13
2022-11-19T15:13:19.134Z,40.74
2022-11-19T15:15:49.178Z,41.89
2022-11-19T15:18:46.370Z,42.19
2022-11-19T15:21:27.911Z,43.23
2022-11-19T15:24:04.589Z,42.77
2022-11-19T15:26:37.864Z,43.44
2022-11-19T15:29:11.483Z,43.28
2022-11-19T15:31:52.438Z,43.85
2022-11-19T15:35:03.874Z,43.99
2022-11-19T15:37:34.595Z,45.29
2022-11-19T15:40:02.807Z,45.51
2022-11-19T15:42:33.332Z,46.06
2022-11-19T15:45:04.862Z,46.65
2022-11-19T15:47:35.899Z,46.84
2022-11-19T15:50:05.679Z,46.38
2022-11-19T15:52:33.920Z,47.07
2022-11-19T15:55:12.180Z,46.99
2022-11-19T15:57:42.963Z,47.36
2022-11-19T16:00:17.286Z,47.30
2022-11-19T16:02:47.460Z,47.70
2022-11-19T16:05:22.740Z,48.97
2022-11-19T16:07:51.173Z,49.86
2022-11-19T16:10:24.904Z,49.63
2022-11-19T16:13:14.612Z,49.84
2022-11-19T16:16:03.337Z,50.45
2022-11-19T16:18:31.237Z,50.13
2022-11-19T16:21:00.685Z,50.09
2022-11-19T16:23:29.109Z,50.39
2022-11-19T16:26:02.698Z,50.36
2022-11-19T16:28:31.318Z,50.44
2022-11-19T16:31:01.602Z,51.44
2022-11-19T16:33:30.798Z,51.65
2022-11-19T16:36:15.009Z,51.81
2022-11-19T16:38:44.584Z,51.66
2022-11-19T16:41:30.986Z,51.52
2022-11-19T16:43:59.066Z,51.55
2022-11-19T16:46:29.651Z,51.79
2022-11-19T16:48:58.651Z,52.55
2022-11-19T16:51:36.545Z,53.42
2022-11-19T16:54:06.412Z,53.76
2022-11-19T16:56:41.123Z,54.35
2022-11-19T16:59:21.885Z,54.58
2022-11-19T17:01:55.117Z,54.68
2022-11-19T17:04:24.835Z,55.12
2022-11-19T17:06:54.167Z,54.89
2022-11-19T17:09:35.730Z,55.15
2022-11-19T17:12:19.105Z,55.22
2022-11-19T17:14:53.288Z,55.42
2022-11-19T17:17:40.752Z,56.12
2022-11-19T17:20:59.748Z,56.21
2022-11-19T17:23:30.251Z,56.68
2022-11-19T17:25:59.716Z,56.95
2022-11-19T17:28:35.017Z,56.85
2022-11-19T17:31:05.471Z,56.81
2022-11-19T17:33:36.559Z,57.00
2022-11-19T17:36:05.221Z,57.68
2022-11-19T17:38:34.511Z,58.19
2022-11-19T17:41:05.008Z,58.48
2022-11-19T17:44:06.230Z,57.95
2022-11-19T17:46:34.081Z,57.60
2022-11-19T17:49:01.923Z,57.53
2022-11-19T17:51:29.757Z,57.96
2022-11-19T17:53:59.024Z,57.66
2022-11-19T17:56:30.039Z,57.58
2022-11-19T17:58:59.624Z,58.22
2022-11-19T18:01:27.789Z,58.46
2022-11-19T18:03:55.821Z,59.10
2022-11-19T18:06:23.779Z,59.13
2022-11-19T18:08:51.660Z,59.14
2022-11-19T18:11:22.504Z,58.93
2022-11-19T18:13:53.067Z,58.69
2022-11-19T18:16:23.121Z,59.20
2022-11-19T18:18:51.399Z,59.43
2022-11-19T18:21:21.088Z,59.07
2022-11-19T18:23:50.305Z,59.55
2022-11-19T18:26:22.258Z,59.73
2022-11-19T18:28:50.183Z,59.86
2022-11-19T18:31:20.411Z,60.04
2022-11-19T18:33:49.205Z,59.38
2022-11-19T18:36:17.610Z,58.98
2022-11-19T18:38:45.817Z,59.42
2022-11-19T18:41:14.756Z,58.81
2022-11-19T18:44:01.360Z,58.25
2022-11-19T18:46:29.244Z,59.01
2022-11-19T18:48:57.071Z,59.51
2022-11-19T18:51:25.483Z,59.34
2022-11-19T18:53:53.295Z,59.02
2022-11-19T18:56:21.578Z,59.32
2022-11-19T18:58:50.841Z,59.80
2022-11-19T19:01:18.832Z,59.44
2022-11-19T19:03:47.068Z,59.63
2022-11-19T19:06:15.712Z,59.76
2022-11-19T19:08:43.566Z,60.02
2022-11-19T19:11:29.549Z,60.21
2022-11-19T19:13:58.886Z,59.78
2022-11-19T19:16:26.890Z,60.00
2022-11-19T19:18:55.462Z,60.57
2022-11-19T19:21:24.241Z,61.25
2022-11-19T19:23:52.171Z,61.86
2022-11-19T19:26:20.571Z,62.75
2022-11-19T19:28:50.557Z,62.38
2022-11-19T19:31:19.999Z,61.85
2022-11-19T19:33:48.216Z,62.14
2022-11-19T19:36:17.080Z,62.63
2022-11-19T19:38:45.357Z,62.79
2022-11-19T19:41:16.335Z,62.59
2022-11-19T19:43:44.544Z,61.70
2022-11-19T19:46:15.859Z,61.20
2022-11-19T19:48:46.123Z,60.97
2022-11-19T19:51:14.845Z,61.03
2022-11-19T19:53:42.787Z,61.12
2022-11-19T19:56:12.900Z,61.38
2022-11-19T19:58:41.708Z,61.18
2022-11-19T20:01:11.184Z,61.14
2022-11-19T20:03:39.251Z,61.50
2022-11-19T20:06:09.969Z,61.30
2022-11-19T20:08:38.238Z,61.21
2022-11-19T20:11:07.852Z,61.09
2022-11-19T20:13:36.792Z,60.95
2022-11-19T20:16:09.944Z,60.67
2022-11-19T20:18:42.028Z,61.34
2022-11-19T20:21:12.803Z,61.79
2022-11-19T20:23:41.406Z,62.26
2022-11-19T20:26:11.660Z,62.34
2022-11-19T20:28:39.579Z,62.46
2022-11-19T20:31:09.535Z,62.19
2022-11-19T20:33:38.295Z,62.60
2022-11-19T20:36:07.788Z,62.31
2022-11-19T20:38:38.229Z,62.16
2022-11-19T20:41:08.142Z,62.44
2022-11-19T20:43:53.707Z,62.10
2022-11-19T20:46:22.564Z,62.34
2022-11-19T20:48:50.865Z,62.54
2022-11-19T20:51:19.910Z,63.00
2022-11-19T20:53:49.322Z,63.36
2022-11-19T20:56:17.166Z,63.64
2022-11-19T20:58:45.131Z,63.53
2022-11-19T21:01:12.945Z,63.22
2022-11-19T21:03:40.836Z,63.43
2022-11-19T21:06:09.364Z,63.33
2022-11-19T21:08:37.663Z,62.57
2022-11-19T21:11:09.443Z,62.43
2022-11-19T21:13:37.479Z,63.01
2022-11-19T21:16:06.891Z,63.24
2022-11-19T21:18:37.051Z,62.85
2022-11-19T21:21:06.964Z,62.54
2022-11-19T21:23:35.384Z,62.50
2022-11-19T21:26:03.909Z,62.40
2022-11-19T21:28:33.740Z,62.77
2022-11-19T21:31:02.029Z,63.32
2022-11-19T21:33:29.999Z,64.24
2022-11-19T21:35:59.157Z,63.91
2022-11-19T21:38:27.262Z,63.12
2022-11-19T21:40:56.282Z,62.53
2022-11-19T21:43:25.797Z,62.49
2022-11-19T21:45:55.707Z,62.85
2022-11-19T21:48:24.010Z,63.11
2022-11-19T21:50:52.706Z,64.22
2022-11-19T21:53:20.809Z,63.92
2022-11-19T21:55:49.211Z,63.43
2022-11-19T21:58:17.709Z,63.08
2022-11-19T22:00:47.039Z,62.80
2022-11-19T22:03:16.497Z,62.96
2022-11-19T22:05:44.393Z,63.56
2022-11-19T22:08:12.330Z,63.33
2022-11-19T22:10:44.315Z,63.79
2022-11-19T22:13:13.480Z,63.56
2022-11-19T22:15:41.448Z,63.21
2022-11-19T22:18:09.312Z,62.87
2022-11-19T22:20:38.544Z,63.03
2022-11-19T22:23:06.325Z,63.53
2022-11-19T22:25:34.942Z,65.00
2022-11-19T22:28:03.301Z,66.03
2022-11-19T22:30:31.146Z,65.04
2022-11-19T22:32:59.009Z,64.07
2022-11-19T22:35:26.800Z,64.07
2022-11-19T22:37:55.991Z,64.25
2022-11-19T22:40:23.834Z,64.52
2022-11-19T22:42:51.710Z,64.36
2022-11-19T22:45:19.572Z,64.52
2022-11-19T22:47:47.453Z,65.18
2022-11-19T22:50:15.431Z,65.42
2022-11-19T22:52:43.263Z,65.07
2022-11-19T22:55:12.507Z,64.61
2022-11-19T22:57:40.338Z,64.42
2022-11-19T23:00:12.991Z,64.54
2022-11-19T23:02:40.775Z,64.80
2022-11-19T23:05:08.955Z,64.13
2022-11-19T23:07:36.876Z,64.64
2022-11-19T23:10:04.976Z,65.03
2022-11-19T23:12:51.612Z,65.48
2022-11-19T23:15:19.461Z,66.47
2022-11-19T23:17:47.263Z,66.72
2022-11-19T23:20:15.555Z,66.86
2022-11-19T23:22:43.411Z,66.38
2022-11-19T23:25:11.264Z,65.99
2022-11-19T23:27:40.442Z,66.56
2022-11-19T23:30:09.467Z,66.92
2022-11-19T23:32:37.291Z,66.23
2022-11-19T23:35:05.723Z,65.47
2022-11-19T23:37:33.552Z,65.81
2022-11-19T23:40:01.415Z,65.40
2022-11-19T23:42:29.217Z,65.02
2022-11-19T23:44:58.502Z,64.72
2022-11-19T23:47:26.363Z,64.87
2022-11-19T23:49:54.190Z,65.02
2022-11-19T23:52:22.007Z,65.01
2022-11-19T23:54:49.987Z,65.21
2022-11-19T23:57:17.878Z,65.04
2022-11-19T23:59:45.733Z,64.90
